Virginia, Illinois
Current Conditions -  °F | °C
As of 6:15 AM on Sunday 23 Nov 2014 (Local Time) from KIJX Reporting Station
Drizzle Drizzle  
Wind Chill: 54°   Ceiling: 10000
Heat Index: 54°   Visibility: 10mi
Dew Point: 47°   Wind: 12mph
Humidity: 77%   Direction: 170°S
Pressure: 29.71"   Gusts: 21mph
Location:  39.95°N, 90.21°W
Report Text: KIJX 231215Z AUTO 17010G18KT 10SM -DZ OVC100 12/08 A2971 RMK AO2 T01200081
Loading
Personal Weather Stations






























Interactive Weather Map New forecast layout! Learn more

10-Day Weather Forecast

Advertisements
Track Severe Weather on mobile